sensor_id;sensor_type;location;lat;lon;timestamp;pressure;altitude;pressure_sealevel;temperature;humidity
61870;BME280;47810;42.264;23.826;2023-04-27T00:02:09;93381.03;;;7.62;61.64
61870;BME280;47810;42.264;23.826;2023-04-27T00:04:35;93381.50;;;7.54;62.05
61870;BME280;47810;42.264;23.826;2023-04-27T00:07:01;93383.38;;;7.66;62.62
61870;BME280;47810;42.264;23.826;2023-04-27T00:09:27;93382.06;;;7.74;61.73
61870;BME280;47810;42.264;23.826;2023-04-27T00:11:53;93387.31;;;7.59;62.02
61870;BME280;47810;42.264;23.826;2023-04-27T00:14:19;93386.38;;;7.60;61.74
61870;BME280;47810;42.264;23.826;2023-04-27T00:16:45;93391.09;;;7.55;61.38
61870;BME280;47810;42.264;23.826;2023-04-27T00:19:12;93389.00;;;7.60;61.42
61870;BME280;47810;42.264;23.826;2023-04-27T00:21:38;93380.41;;;7.58;61.78
61870;BME280;47810;42.264;23.826;2023-04-27T00:24:03;93386.19;;;7.63;60.98
61870;BME280;47810;42.264;23.826;2023-04-27T00:26:29;93379.81;;;7.53;61.02
61870;BME280;47810;42.264;23.826;2023-04-27T00:28:55;93384.69;;;7.74;61.68
61870;BME280;47810;42.264;23.826;2023-04-27T00:31:20;93382.53;;;7.66;61.12
61870;BME280;47810;42.264;23.826;2023-04-27T00:33:46;93386.38;;;7.75;60.91
61870;BME280;47810;42.264;23.826;2023-04-27T00:36:12;93386.94;;;7.65;61.06
61870;BME280;47810;42.264;23.826;2023-04-27T00:38:37;93395.78;;;7.64;61.41
61870;BME280;47810;42.264;23.826;2023-04-27T00:41:04;93389.50;;;7.53;61.04
61870;BME280;47810;42.264;23.826;2023-04-27T00:43:29;93386.66;;;7.41;61.26
61870;BME280;47810;42.264;23.826;2023-04-27T00:45:55;93390.63;;;7.49;61.94
61870;BME280;47810;42.264;23.826;2023-04-27T00:48:21;93391.84;;;7.43;61.70
61870;BME280;47810;42.264;23.826;2023-04-27T00:50:47;93390.69;;;7.47;62.16
61870;BME280;47810;42.264;23.826;2023-04-27T00:53:13;93399.50;;;7.60;61.69
61870;BME280;47810;42.264;23.826;2023-04-27T00:55:39;93388.47;;;7.55;62.06
61870;BME280;47810;42.264;23.826;2023-04-27T00:58:05;93394.06;;;7.63;62.23
61870;BME280;47810;42.264;23.826;2023-04-27T01:00:30;93392.59;;;7.45;61.46
61870;BME280;47810;42.264;23.826;2023-04-27T01:02:56;93396.25;;;7.42;61.39
61870;BME280;47810;42.264;23.826;2023-04-27T01:05:25;93407.88;;;7.53;61.15
61870;BME280;47810;42.264;23.826;2023-04-27T01:07:51;93399.50;;;7.32;60.79
61870;BME280;47810;42.264;23.826;2023-04-27T01:10:16;93407.47;;;7.30;60.88
61870;BME280;47810;42.264;23.826;2023-04-27T01:12:42;93403.06;;;7.31;60.18
61870;BME280;47810;42.264;23.826;2023-04-27T01:15:08;93398.59;;;7.47;60.89
61870;BME280;47810;42.264;23.826;2023-04-27T01:17:34;93404.94;;;7.29;61.13
61870;BME280;47810;42.264;23.826;2023-04-27T01:20:00;93392.56;;;7.31;60.09
61870;BME280;47810;42.264;23.826;2023-04-27T01:22:26;93397.28;;;7.40;60.02
61870;BME280;47810;42.264;23.826;2023-04-27T01:24:52;93394.81;;;7.37;60.18
61870;BME280;47810;42.264;23.826;2023-04-27T01:27:18;93383.00;;;7.44;61.45
61870;BME280;47810;42.264;23.826;2023-04-27T01:29:44;93390.03;;;7.43;60.17
61870;BME280;47810;42.264;23.826;2023-04-27T01:32:10;93387.22;;;7.46;59.91
61870;BME280;47810;42.264;23.826;2023-04-27T01:34:37;93401.41;;;7.30;59.78
61870;BME280;47810;42.264;23.826;2023-04-27T01:37:02;93397.16;;;7.41;59.74
61870;BME280;47810;42.264;23.826;2023-04-27T01:39:28;93395.03;;;7.48;59.56
61870;BME280;47810;42.264;23.826;2023-04-27T01:41:54;93388.66;;;7.52;58.80
61870;BME280;47810;42.264;23.826;2023-04-27T01:44:21;93394.81;;;7.51;59.08
61870;BME280;47810;42.264;23.826;2023-04-27T01:46:48;93400.28;;;7.48;59.59
61870;BME280;47810;42.264;23.826;2023-04-27T01:49:14;93397.81;;;7.31;59.47
61870;BME280;47810;42.264;23.826;2023-04-27T01:51:40;93393.88;;;7.38;59.77
61870;BME280;47810;42.264;23.826;2023-04-27T01:54:06;93397.81;;;7.31;59.83
61870;BME280;47810;42.264;23.826;2023-04-27T01:56:32;93394.47;;;7.43;59.88
61870;BME280;47810;42.264;23.826;2023-04-27T01:58:57;93393.59;;;7.28;60.45
61870;BME280;47810;42.264;23.826;2023-04-27T02:01:23;93392.19;;;7.37;59.56
61870;BME280;47810;42.264;23.826;2023-04-27T02:03:49;93396.81;;;7.33;59.98
61870;BME280;47810;42.264;23.826;2023-04-27T02:06:14;93402.06;;;7.33;59.04
61870;BME280;47810;42.264;23.826;2023-04-27T02:08:40;93398.28;;;7.37;59.45
61870;BME280;47810;42.264;23.826;2023-04-27T02:11:06;93396.44;;;7.39;59.80
61870;BME280;47810;42.264;23.826;2023-04-27T02:13:31;93401.88;;;7.36;59.21
61870;BME280;47810;42.264;23.826;2023-04-27T02:15:58;93399.53;;;7.46;58.89
61870;BME280;47810;42.264;23.826;2023-04-27T02:18:26;93403.50;;;7.09;59.65
61870;BME280;47810;42.264;23.826;2023-04-27T02:20:53;93406.59;;;7.15;59.67
61870;BME280;47810;42.264;23.826;2023-04-27T02:23:18;93402.78;;;7.21;59.90
61870;BME280;47810;42.264;23.826;2023-04-27T02:25:45;93417.16;;;7.30;58.43
61870;BME280;47810;42.264;23.826;2023-04-27T02:28:13;93413.75;;;7.28;58.90
61870;BME280;47810;42.264;23.826;2023-04-27T02:30:39;93415.44;;;7.14;58.27
61870;BME280;47810;42.264;23.826;2023-04-27T02:33:05;93407.38;;;7.17;58.79
61870;BME280;47810;42.264;23.826;2023-04-27T02:35:31;93420.91;;;7.26;59.73
61870;BME280;47810;42.264;23.826;2023-04-27T02:37:57;93411.72;;;7.33;59.13
61870;BME280;47810;42.264;23.826;2023-04-27T02:40:23;93415.44;;;7.29;58.42
61870;BME280;47810;42.264;23.826;2023-04-27T02:42:49;93423.13;;;7.17;58.60
61870;BME280;47810;42.264;23.826;2023-04-27T02:45:15;93429.88;;;7.21;59.08
61870;BME280;47810;42.264;23.826;2023-04-27T02:47:40;93420.78;;;7.13;58.01
61870;BME280;47810;42.264;23.826;2023-04-27T02:50:07;93424.31;;;7.12;59.01
61870;BME280;47810;42.264;23.826;2023-04-27T02:52:32;93427.59;;;7.15;59.26
61870;BME280;47810;42.264;23.826;2023-04-27T02:54:58;93421.53;;;7.15;58.60
61870;BME280;47810;42.264;23.826;2023-04-27T02:57:24;93428.19;;;7.20;58.84
61870;BME280;47810;42.264;23.826;2023-04-27T02:59:49;93428.09;;;7.22;59.07
61870;BME280;47810;42.264;23.826;2023-04-27T03:02:15;93430.91;;;7.19;59.17
61870;BME280;47810;42.264;23.826;2023-04-27T03:04:41;93431.59;;;7.22;59.80
61870;BME280;47810;42.264;23.826;2023-04-27T03:07:07;93435.63;;;6.98;58.55
61870;BME280;47810;42.264;23.826;2023-04-27T03:09:33;93426.81;;;6.99;59.23
61870;BME280;47810;42.264;23.826;2023-04-27T03:11:59;93427.78;;;6.98;58.67
61870;BME280;47810;42.264;23.826;2023-04-27T03:14:24;93438.47;;;7.09;59.27
61870;BME280;47810;42.264;23.826;2023-04-27T03:16:50;93430.69;;;7.08;58.67
61870;BME280;47810;42.264;23.826;2023-04-27T03:19:16;93431.34;;;7.11;58.61
61870;BME280;47810;42.264;23.826;2023-04-27T03:21:42;93435.84;;;7.09;59.75
61870;BME280;47810;42.264;23.826;2023-04-27T03:24:07;93438.66;;;7.06;58.95
61870;BME280;47810;42.264;23.826;2023-04-27T03:26:33;93447.63;;;7.02;58.92
61870;BME280;47810;42.264;23.826;2023-04-27T03:28:58;93441.91;;;6.95;59.05
61870;BME280;47810;42.264;23.826;2023-04-27T03:31:25;93446.72;;;7.03;58.96
61870;BME280;47810;42.264;23.826;2023-04-27T03:33:51;93448.75;;;6.98;57.90
61870;BME280;47810;42.264;23.826;2023-04-27T03:36:16;93456.53;;;6.99;59.91
61870;BME280;47810;42.264;23.826;2023-04-27T03:38:42;93462.09;;;6.79;62.98
61870;BME280;47810;42.264;23.826;2023-04-27T03:41:08;93455.03;;;6.65;64.07
61870;BME280;47810;42.264;23.826;2023-04-27T03:43:33;93456.81;;;6.65;64.90
61870;BME280;47810;42.264;23.826;2023-04-27T03:45:59;93454.06;;;6.66;65.33
61870;BME280;47810;42.264;23.826;2023-04-27T03:48:24;93462.06;;;6.65;64.70
61870;BME280;47810;42.264;23.826;2023-04-27T03:50:50;93460.84;;;6.54;65.02
61870;BME280;47810;42.264;23.826;2023-04-27T03:53:16;93470.50;;;6.54;65.03
61870;BME280;47810;42.264;23.826;2023-04-27T03:55:42;93467.31;;;6.49;65.53
61870;BME280;47810;42.264;23.826;2023-04-27T03:58:08;93477.19;;;6.28;66.29
61870;BME280;47810;42.264;23.826;2023-04-27T04:00:37;93476.09;;;6.48;66.12
61870;BME280;47810;42.264;23.826;2023-04-27T04:03:03;93477.97;;;6.46;66.80
61870;BME280;47810;42.264;23.826;2023-04-27T04:05:29;93490.31;;;6.28;66.70
61870;BME280;47810;42.264;23.826;2023-04-27T04:07:55;93485.56;;;6.35;67.20
61870;BME280;47810;42.264;23.826;2023-04-27T04:10:21;93497.56;;;6.39;67.14
61870;BME280;47810;42.264;23.826;2023-04-27T04:12:47;93493.69;;;6.46;67.15
61870;BME280;47810;42.264;23.826;2023-04-27T04:15:13;93496.91;;;6.51;67.30
61870;BME280;47810;42.264;23.826;2023-04-27T04:17:38;93497.00;;;6.34;67.25
61870;BME280;47810;42.264;23.826;2023-04-27T04:20:05;93505.63;;;6.36;67.51
61870;BME280;47810;42.264;23.826;2023-04-27T04:22:38;93506.72;;;6.47;67.89
61870;BME280;47810;42.264;23.826;2023-04-27T04:25:04;93512.81;;;6.48;67.29
61870;BME280;47810;42.264;23.826;2023-04-27T04:27:30;93509.44;;;6.46;66.72
61870;BME280;47810;42.264;23.826;2023-04-27T04:29:58;93508.41;;;6.48;66.13
61870;BME280;47810;42.264;23.826;2023-04-27T04:32:25;93519.66;;;6.50;65.26
61870;BME280;47810;42.264;23.826;2023-04-27T04:34:55;93518.53;;;6.39;64.77
61870;BME280;47810;42.264;23.826;2023-04-27T04:37:21;93517.97;;;6.49;65.11
61870;BME280;47810;42.264;23.826;2023-04-27T04:39:47;93521.59;;;6.47;64.17
61870;BME280;47810;42.264;23.826;2023-04-27T04:42:12;93527.19;;;6.57;64.42
61870;BME280;47810;42.264;23.826;2023-04-27T04:44:38;93527.19;;;6.57;63.48
61870;BME280;47810;42.264;23.826;2023-04-27T04:47:04;93533.09;;;6.60;63.80
61870;BME280;47810;42.264;23.826;2023-04-27T04:49:30;93535.00;;;6.58;62.40
61870;BME280;47810;42.264;23.826;2023-04-27T04:51:56;93537.19;;;6.66;62.54
61870;BME280;47810;42.264;23.826;2023-04-27T04:54:22;93543.53;;;6.78;62.67
61870;BME280;47810;42.264;23.826;2023-04-27T04:56:47;93539.19;;;6.76;62.49
61870;BME280;47810;42.264;23.826;2023-04-27T04:59:23;93544.53;;;6.75;62.92
61870;BME280;47810;42.264;23.826;2023-04-27T05:01:49;93542.66;;;6.61;63.20
61870;BME280;47810;42.264;23.826;2023-04-27T05:04:15;93547.06;;;6.76;63.96
61870;BME280;47810;42.264;23.826;2023-04-27T05:06:40;93549.69;;;6.76;64.62
61870;BME280;47810;42.264;23.826;2023-04-27T05:09:06;93552.25;;;6.94;64.39
61870;BME280;47810;42.264;23.826;2023-04-27T05:11:31;93547.22;;;7.05;63.96
61870;BME280;47810;42.264;23.826;2023-04-27T05:13:57;93553.22;;;7.07;64.11
61870;BME280;47810;42.264;23.826;2023-04-27T05:16:22;93549.50;;;7.11;63.61
61870;BME280;47810;42.264;23.826;2023-04-27T05:18:50;93556.41;;;7.12;63.68
61870;BME280;47810;42.264;23.826;2023-04-27T05:21:16;93554.56;;;7.14;62.77
61870;BME280;47810;42.264;23.826;2023-04-27T05:23:45;93557.44;;;7.26;62.39
61870;BME280;47810;42.264;23.826;2023-04-27T05:26:14;93550.91;;;7.33;62.47
61870;BME280;47810;42.264;23.826;2023-04-27T05:28:40;93550.97;;;7.31;62.43
61870;BME280;47810;42.264;23.826;2023-04-27T05:31:06;93557.16;;;7.60;60.87
61870;BME280;47810;42.264;23.826;2023-04-27T05:33:32;93553.56;;;7.47;61.60
61870;BME280;47810;42.264;23.826;2023-04-27T05:35:58;93556.41;;;7.58;61.42
61870;BME280;47810;42.264;23.826;2023-04-27T05:38:24;93553.59;;;7.61;61.05
61870;BME280;47810;42.264;23.826;2023-04-27T05:40:53;93560.72;;;7.59;60.75
61870;BME280;47810;42.264;23.826;2023-04-27T05:43:20;93555.47;;;7.59;60.46
61870;BME280;47810;42.264;23.826;2023-04-27T05:45:45;93558.19;;;7.58;59.44
61870;BME280;47810;42.264;23.826;2023-04-27T05:48:11;93560.47;;;7.78;58.43
61870;BME280;47810;42.264;23.826;2023-04-27T05:50:38;93564.91;;;7.78;57.27
61870;BME280;47810;42.264;23.826;2023-04-27T05:53:04;93558.91;;;7.90;57.41
61870;BME280;47810;42.264;23.826;2023-04-27T05:55:30;93558.56;;;7.96;57.47
61870;BME280;47810;42.264;23.826;2023-04-27T05:57:55;93563.19;;;7.77;58.26
61870;BME280;47810;42.264;23.826;2023-04-27T06:00:22;93567.72;;;7.75;58.24
61870;BME280;47810;42.264;23.826;2023-04-27T06:02:47;93566.22;;;7.85;57.18
61870;BME280;47810;42.264;23.826;2023-04-27T06:05:13;93571.69;;;7.96;57.38
61870;BME280;47810;42.264;23.826;2023-04-27T06:07:39;93567.56;;;8.06;56.20
61870;BME280;47810;42.264;23.826;2023-04-27T06:10:08;93565.97;;;8.32;56.12
61870;BME280;47810;42.264;23.826;2023-04-27T06:12:34;93569.66;;;8.15;56.29
61870;BME280;47810;42.264;23.826;2023-04-27T06:15:00;93574.03;;;8.15;56.29
61870;BME280;47810;42.264;23.826;2023-04-27T06:17:28;93579.88;;;8.34;55.37
61870;BME280;47810;42.264;23.826;2023-04-27T06:19:53;93584.28;;;8.34;54.99
61870;BME280;47810;42.264;23.826;2023-04-27T06:22:19;93588.03;;;8.01;55.28
61870;BME280;47810;42.264;23.826;2023-04-27T06:24:45;93581.00;;;8.16;55.58
61870;BME280;47810;42.264;23.826;2023-04-27T06:27:11;93591.16;;;8.22;55.53
61870;BME280;47810;42.264;23.826;2023-04-27T06:29:37;93577.63;;;8.28;54.74
61870;BME280;47810;42.264;23.826;2023-04-27T06:32:03;93576.25;;;8.51;53.77
61870;BME280;47810;42.264;23.826;2023-04-27T06:34:32;93582.63;;;8.61;54.75
61870;BME280;47810;42.264;23.826;2023-04-27T06:36:57;93584.50;;;8.59;54.63
61870;BME280;47810;42.264;23.826;2023-04-27T06:39:23;93595.59;;;8.50;54.03
61870;BME280;47810;42.264;23.826;2023-04-27T06:41:48;93584.88;;;8.53;54.03
61870;BME280;47810;42.264;23.826;2023-04-27T06:44:14;93587.16;;;8.45;54.26
61870;BME280;47810;42.264;23.826;2023-04-27T06:46:40;93593.63;;;8.39;52.98
61870;BME280;47810;42.264;23.826;2023-04-27T06:49:05;93596.94;;;8.57;54.41
61870;BME280;47810;42.264;23.826;2023-04-27T06:51:31;93595.22;;;8.42;54.57
61870;BME280;47810;42.264;23.826;2023-04-27T06:53:56;93593.16;;;8.61;54.04
61870;BME280;47810;42.264;23.826;2023-04-27T06:56:22;93601.03;;;8.76;52.38
61870;BME280;47810;42.264;23.826;2023-04-27T06:58:47;93591.81;;;8.69;53.06
61870;BME280;47810;42.264;23.826;2023-04-27T07:01:13;93607.06;;;8.49;51.51
61870;BME280;47810;42.264;23.826;2023-04-27T07:03:39;93603.88;;;8.58;52.85
61870;BME280;47810;42.264;23.826;2023-04-27T07:06:05;93591.47;;;8.60;51.83
61870;BME280;47810;42.264;23.826;2023-04-27T07:08:31;93594.91;;;8.75;53.19
61870;BME280;47810;42.264;23.826;2023-04-27T07:10:57;93600.25;;;8.88;50.84
61870;BME280;47810;42.264;23.826;2023-04-27T07:13:22;93602.78;;;9.04;52.44
61870;BME280;47810;42.264;23.826;2023-04-27T07:15:52;93601.16;;;9.43;51.45
61870;BME280;47810;42.264;23.826;2023-04-27T07:18:18;93594.38;;;9.12;50.69
61870;BME280;47810;42.264;23.826;2023-04-27T07:20:44;93590.22;;;9.22;50.04
61870;BME280;47810;42.264;23.826;2023-04-27T07:23:09;93600.88;;;9.47;49.87
61870;BME280;47810;42.264;23.826;2023-04-27T07:25:35;93596.53;;;9.46;50.06
61870;BME280;47810;42.264;23.826;2023-04-27T07:28:02;93587.06;;;9.56;50.33
61870;BME280;47810;42.264;23.826;2023-04-27T07:30:28;93589.00;;;9.40;50.04
61870;BME280;47810;42.264;23.826;2023-04-27T07:32:55;93596.41;;;9.21;51.46
61870;BME280;47810;42.264;23.826;2023-04-27T07:35:20;93595.03;;;9.42;49.70
61870;BME280;47810;42.264;23.826;2023-04-27T07:37:46;93603.72;;;9.44;49.38
61870;BME280;47810;42.264;23.826;2023-04-27T07:40:12;93590.56;;;9.30;48.76
61870;BME280;47810;42.264;23.826;2023-04-27T07:42:41;93596.22;;;9.24;49.72
61870;BME280;47810;42.264;23.826;2023-04-27T07:45:09;93601.06;;;9.44;48.87
61870;BME280;47810;42.264;23.826;2023-04-27T07:47:36;93597.59;;;9.56;50.92
61870;BME280;47810;42.264;23.826;2023-04-27T07:50:02;93597.91;;;9.92;50.81
61870;BME280;47810;42.264;23.826;2023-04-27T07:52:28;93604.91;;;9.66;48.94
61870;BME280;47810;42.264;23.826;2023-04-27T07:54:54;93604.16;;;9.51;48.55
61870;BME280;47810;42.264;23.826;2023-04-27T07:57:19;93601.19;;;9.55;49.30
61870;BME280;47810;42.264;23.826;2023-04-27T07:59:45;93593.84;;;9.61;47.56
61870;BME280;47810;42.264;23.826;2023-04-27T08:02:11;93595.53;;;9.62;47.26
61870;BME280;47810;42.264;23.826;2023-04-27T08:04:37;93589.28;;;10.02;47.66
61870;BME280;47810;42.264;23.826;2023-04-27T08:07:02;93598.59;;;10.08;47.20
61870;BME280;47810;42.264;23.826;2023-04-27T08:09:28;93593.09;;;10.24;48.61
61870;BME280;47810;42.264;23.826;2023-04-27T08:11:53;93607.75;;;10.02;47.12
61870;BME280;47810;42.264;23.826;2023-04-27T08:14:19;93611.13;;;9.65;45.89
61870;BME280;47810;42.264;23.826;2023-04-27T08:16:45;93610.81;;;9.69;48.40
61870;BME280;47810;42.264;23.826;2023-04-27T08:19:11;93608.25;;;9.95;47.70
61870;BME280;47810;42.264;23.826;2023-04-27T08:21:37;93597.78;;;10.33;47.05
61870;BME280;47810;42.264;23.826;2023-04-27T08:24:03;93606.03;;;10.01;46.77
61870;BME280;47810;42.264;23.826;2023-04-27T08:26:28;93599.66;;;10.18;47.14
61870;BME280;47810;42.264;23.826;2023-04-27T08:28:54;93595.66;;;10.64;46.85
61870;BME280;47810;42.264;23.826;2023-04-27T08:31:24;93584.34;;;11.24;45.20
61870;BME280;47810;42.264;23.826;2023-04-27T08:33:51;93598.91;;;10.93;45.37
61870;BME280;47810;42.264;23.826;2023-04-27T08:36:17;93601.13;;;10.86;46.14
61870;BME280;47810;42.264;23.826;2023-04-27T08:38:43;93608.75;;;10.40;45.66
61870;BME280;47810;42.264;23.826;2023-04-27T08:41:09;93609.22;;;10.46;46.36
61870;BME280;47810;42.264;23.826;2023-04-27T08:43:35;93595.34;;;11.18;46.45
61870;BME280;47810;42.264;23.826;2023-04-27T08:46:01;93600.16;;;11.37;43.47
61870;BME280;47810;42.264;23.826;2023-04-27T08:48:27;93592.28;;;11.24;44.58
61870;BME280;47810;42.264;23.826;2023-04-27T08:50:53;93595.97;;;11.46;44.45
61870;BME280;47810;42.264;23.826;2023-04-27T08:53:20;93598.91;;;12.02;43.97
61870;BME280;47810;42.264;23.826;2023-04-27T08:55:46;93597.53;;;12.20;42.04
61870;BME280;47810;42.264;23.826;2023-04-27T08:58:12;93600.28;;;11.59;43.05
61870;BME280;47810;42.264;23.826;2023-04-27T09:00:38;93608.22;;;12.07;42.26
61870;BME280;47810;42.264;23.826;2023-04-27T09:03:06;93601.41;;;12.27;42.71
61870;BME280;47810;42.264;23.826;2023-04-27T09:05:32;93607.22;;;12.44;43.20
61870;BME280;47810;42.264;23.826;2023-04-27T09:07:58;93593.75;;;13.03;42.09
61870;BME280;47810;42.264;23.826;2023-04-27T09:10:25;93600.38;;;12.86;41.49
61870;BME280;47810;42.264;23.826;2023-04-27T09:12:56;93608.75;;;12.35;42.26
61870;BME280;47810;42.264;23.826;2023-04-27T09:15:22;93595.22;;;13.07;43.01
61870;BME280;47810;42.264;23.826;2023-04-27T09:17:54;93587.13;;;13.31;42.04
61870;BME280;47810;42.264;23.826;2023-04-27T09:20:20;93603.38;;;13.38;42.44
61870;BME280;47810;42.264;23.826;2023-04-27T09:22:47;93592.53;;;14.16;39.27
61870;BME280;47810;42.264;23.826;2023-04-27T09:25:29;93587.66;;;14.21;37.17
61870;BME280;47810;42.264;23.826;2023-04-27T09:27:55;93597.59;;;13.21;41.63
61870;BME280;47810;42.264;23.826;2023-04-27T09:30:22;93600.22;;;13.55;41.85
61870;BME280;47810;42.264;23.826;2023-04-27T09:32:51;93601.94;;;13.00;42.43
61870;BME280;47810;42.264;23.826;2023-04-27T09:35:21;93602.06;;;13.43;41.90
61870;BME280;47810;42.264;23.826;2023-04-27T09:37:48;93598.81;;;13.28;39.81
61870;BME280;47810;42.264;23.826;2023-04-27T09:40:14;93593.41;;;13.30;42.53
61870;BME280;47810;42.264;23.826;2023-04-27T09:42:39;93593.50;;;13.06;41.77
61870;BME280;47810;42.264;23.826;2023-04-27T09:45:05;93578.69;;;13.81;40.78
61870;BME280;47810;42.264;23.826;2023-04-27T09:47:31;93576.56;;;14.79;40.26
61870;BME280;47810;42.264;23.826;2023-04-27T09:49:58;93577.41;;;14.38;40.62
61870;BME280;47810;42.264;23.826;2023-04-27T09:52:24;93579.34;;;14.68;38.84
61870;BME280;47810;42.264;23.826;2023-04-27T09:54:50;93571.66;;;15.05;38.22
61870;BME280;47810;42.264;23.826;2023-04-27T09:57:30;93566.16;;;15.37;37.94
61870;BME280;47810;42.264;23.826;2023-04-27T10:00:01;93572.78;;;15.03;38.16
61870;BME280;47810;42.264;23.826;2023-04-27T10:02:39;93583.22;;;15.25;38.39
61870;BME280;47810;42.264;23.826;2023-04-27T10:07:33;93570.44;;;14.79;39.19
61870;BME280;47810;42.264;23.826;2023-04-27T10:10:02;93567.50;;;15.12;37.18
61870;BME280;47810;42.264;23.826;2023-04-27T10:12:34;93566.59;;;15.02;39.33
61870;BME280;47810;42.264;23.826;2023-04-27T10:17:52;93548.03;;;14.72;38.51
61870;BME280;47810;42.264;23.826;2023-04-27T10:20:28;93556.78;;;14.93;36.45
61870;BME280;47810;42.264;23.826;2023-04-27T10:22:54;93550.81;;;15.60;38.17
61870;BME280;47810;42.264;23.826;2023-04-27T10:25:36;93547.38;;;15.29;38.74
61870;BME280;47810;42.264;23.826;2023-04-27T10:28:02;93551.91;;;15.48;36.61
61870;BME280;47810;42.264;23.826;2023-04-27T10:30:32;93554.75;;;14.76;38.38
61870;BME280;47810;42.264;23.826;2023-04-27T10:32:58;93555.53;;;15.47;36.47
61870;BME280;47810;42.264;23.826;2023-04-27T10:38:15;93547.56;;;16.64;36.34
61870;BME280;47810;42.264;23.826;2023-04-27T10:40:42;93546.13;;;15.93;36.18
61870;BME280;47810;42.264;23.826;2023-04-27T10:43:09;93549.19;;;16.08;34.92
61870;BME280;47810;42.264;23.826;2023-04-27T10:45:35;93541.84;;;15.52;36.29
61870;BME280;47810;42.264;23.826;2023-04-27T10:48:01;93547.94;;;16.02;38.27
61870;BME280;47810;42.264;23.826;2023-04-27T10:50:26;93547.09;;;15.23;38.28
61870;BME280;47810;42.264;23.826;2023-04-27T10:52:52;93549.03;;;16.29;34.72
61870;BME280;47810;42.264;23.826;2023-04-27T10:55:18;93542.34;;;14.86;33.69
61870;BME280;47810;42.264;23.826;2023-04-27T10:57:51;93544.41;;;15.73;37.24
61870;BME280;47810;42.264;23.826;2023-04-27T11:00:21;93550.44;;;15.75;35.54
61870;BME280;47810;42.264;23.826;2023-04-27T11:02:48;93544.16;;;16.15;35.89
61870;BME280;47810;42.264;23.826;2023-04-27T11:05:17;93547.66;;;16.72;36.76
61870;BME280;47810;42.264;23.826;2023-04-27T11:07:43;93545.13;;;16.90;34.81
61870;BME280;47810;42.264;23.826;2023-04-27T11:10:09;93542.47;;;16.90;33.77
61870;BME280;47810;42.264;23.826;2023-04-27T11:12:39;93546.09;;;16.13;35.22
61870;BME280;47810;42.264;23.826;2023-04-27T11:15:04;93550.56;;;16.41;34.22
61870;BME280;47810;42.264;23.826;2023-04-27T11:17:30;93534.00;;;16.47;34.92
61870;BME280;47810;42.264;23.826;2023-04-27T11:19:56;93536.88;;;17.11;33.88
61870;BME280;47810;42.264;23.826;2023-04-27T11:22:22;93535.38;;;16.51;32.22
61870;BME280;47810;42.264;23.826;2023-04-27T11:24:48;93541.56;;;15.55;34.93
61870;BME280;47810;42.264;23.826;2023-04-27T11:27:14;93543.13;;;15.07;35.69
61870;BME280;47810;42.264;23.826;2023-04-27T11:29:39;93538.81;;;15.76;36.19
61870;BME280;47810;42.264;23.826;2023-04-27T11:32:05;93550.59;;;15.83;34.28
61870;BME280;47810;42.264;23.826;2023-04-27T11:34:31;93556.47;;;15.96;35.45
61870;BME280;47810;42.264;23.826;2023-04-27T11:37:01;93546.22;;;16.11;34.24
61870;BME280;47810;42.264;23.826;2023-04-27T11:39:31;93541.25;;;16.65;33.91
61870;BME280;47810;42.264;23.826;2023-04-27T11:41:57;93547.97;;;16.79;33.27
61870;BME280;47810;42.264;23.826;2023-04-27T11:44:38;93545.00;;;16.05;32.85
61870;BME280;47810;42.264;23.826;2023-04-27T11:47:05;93537.00;;;15.86;33.75
61870;BME280;47810;42.264;23.826;2023-04-27T11:49:31;93552.31;;;15.44;34.00
61870;BME280;47810;42.264;23.826;2023-04-27T11:51:56;93546.91;;;15.14;33.83
61870;BME280;47810;42.264;23.826;2023-04-27T11:54:26;93554.81;;;14.95;35.65
61870;BME280;47810;42.264;23.826;2023-04-27T11:56:52;93549.56;;;15.14;36.70
61870;BME280;47810;42.264;23.826;2023-04-27T11:59:21;93550.88;;;14.38;34.12
61870;BME280;47810;42.264;23.826;2023-04-27T12:01:51;93554.13;;;14.62;34.90
61870;BME280;47810;42.264;23.826;2023-04-27T12:04:17;93550.94;;;13.73;37.68
61870;BME280;47810;42.264;23.826;2023-04-27T12:06:42;93547.72;;;14.65;36.72
61870;BME280;47810;42.264;23.826;2023-04-27T12:09:08;93554.75;;;14.76;36.14
61870;BME280;47810;42.264;23.826;2023-04-27T12:11:34;93547.31;;;15.00;35.03
61870;BME280;47810;42.264;23.826;2023-04-27T12:13:59;93563.56;;;15.07;34.48
61870;BME280;47810;42.264;23.826;2023-04-27T12:16:25;93552.75;;;15.39;33.55
61870;BME280;47810;42.264;23.826;2023-04-27T12:18:51;93553.78;;;15.17;35.13
61870;BME280;47810;42.264;23.826;2023-04-27T12:21:16;93556.38;;;15.38;35.74
61870;BME280;47810;42.264;23.826;2023-04-27T12:23:42;93554.63;;;15.18;36.45
61870;BME280;47810;42.264;23.826;2023-04-27T12:26:08;93558.56;;;15.23;35.44
61870;BME280;47810;42.264;23.826;2023-04-27T12:28:34;93558.59;;;15.33;34.89
61870;BME280;47810;42.264;23.826;2023-04-27T12:31:03;93557.66;;;15.53;34.97
61870;BME280;47810;42.264;23.826;2023-04-27T12:33:28;93561.94;;;15.85;35.13
61870;BME280;47810;42.264;23.826;2023-04-27T12:35:54;93555.09;;;16.12;33.74
61870;BME280;47810;42.264;23.826;2023-04-27T12:38:20;93560.50;;;16.39;35.27
61870;BME280;47810;42.264;23.826;2023-04-27T12:40:46;93556.75;;;15.74;34.60
61870;BME280;47810;42.264;23.826;2023-04-27T12:43:12;93554.94;;;15.34;35.43
61870;BME280;47810;42.264;23.826;2023-04-27T12:45:37;93563.06;;;15.23;36.07
61870;BME280;47810;42.264;23.826;2023-04-27T12:48:04;93564.47;;;14.24;36.71
61870;BME280;47810;42.264;23.826;2023-04-27T12:50:30;93558.81;;;14.80;36.26
61870;BME280;47810;42.264;23.826;2023-04-27T12:52:56;93561.44;;;14.28;35.90
61870;BME280;47810;42.264;23.826;2023-04-27T12:55:21;93566.03;;;14.47;36.77
61870;BME280;47810;42.264;23.826;2023-04-27T12:57:47;93570.44;;;14.79;36.52
61870;BME280;47810;42.264;23.826;2023-04-27T13:00:13;93565.63;;;14.73;36.76
61870;BME280;47810;42.264;23.826;2023-04-27T13:02:39;93561.09;;;14.63;36.42